createdAt,value
2018-12-07T00:02:26.598Z,18.03
2018-12-07T00:04:54.884Z,20.00
2018-12-07T00:07:23.169Z,17.30
2018-12-07T00:09:51.360Z,21.27
2018-12-07T00:12:19.543Z,15.67
2018-12-07T00:14:47.756Z,16.93
2018-12-07T00:17:16.052Z,13.20
2018-12-07T00:19:47.893Z,12.53
2018-12-07T00:22:14.591Z,13.23
2018-12-07T00:24:43.173Z,11.80
2018-12-07T00:27:11.417Z,12.07
2018-12-07T00:29:39.726Z,9.40
2018-12-07T00:32:08.288Z,7.93
2018-12-07T00:34:36.503Z,6.53
2018-12-07T00:37:04.836Z,7.03
2018-12-07T00:39:33.111Z,6.13
2018-12-07T00:42:01.295Z,6.27
2018-12-07T00:44:29.475Z,6.67
2018-12-07T00:46:57.630Z,4.20
2018-12-07T00:49:25.925Z,3.70
2018-12-07T00:51:54.111Z,4.10
2018-12-07T00:54:22.342Z,4.97
2018-12-07T00:56:50.591Z,4.67
2018-12-07T00:59:18.822Z,3.60
2018-12-07T01:01:46.961Z,4.50
2018-12-07T01:04:15.158Z,3.93
2018-12-07T01:06:43.337Z,3.20
2018-12-07T01:09:11.570Z,5.43
2018-12-07T01:11:39.863Z,4.40
2018-12-07T01:14:08.143Z,4.10
2018-12-07T01:16:36.382Z,3.90
2018-12-07T01:19:04.725Z,3.93
2018-12-07T01:21:33.016Z,4.03
2018-12-07T01:24:01.160Z,4.23
2018-12-07T01:26:29.381Z,4.40
2018-12-07T01:28:57.633Z,4.70
2018-12-07T01:31:25.803Z,6.37
2018-12-07T01:33:54.079Z,6.07
2018-12-07T01:36:22.368Z,4.40
2018-12-07T01:38:50.745Z,5.37
2018-12-07T01:41:19.011Z,4.07
2018-12-07T01:43:47.257Z,4.20
2018-12-07T01:46:15.676Z,4.80
2018-12-07T01:48:44.040Z,4.63
2018-12-07T01:51:12.244Z,4.67
2018-12-07T01:56:37.547Z,4.50
2018-12-07T01:59:05.736Z,4.40
2018-12-07T02:01:34.164Z,5.00
2018-12-07T02:04:02.348Z,15.43
2018-12-07T02:06:30.505Z,4.70
2018-12-07T02:08:58.750Z,5.40
2018-12-07T02:11:26.920Z,5.67
2018-12-07T02:13:55.158Z,4.63
2018-12-07T02:16:23.392Z,7.37
2018-12-07T02:18:51.674Z,5.13
2018-12-07T02:23:48.825Z,5.57
2018-12-07T02:26:17.068Z,5.20
2018-12-07T02:28:45.333Z,5.33
2018-12-07T02:31:13.523Z,5.27
2018-12-07T02:33:41.664Z,4.93
2018-12-07T02:36:09.920Z,7.73
2018-12-07T02:38:38.458Z,5.60
2018-12-07T02:41:06.731Z,6.50
2018-12-07T02:43:35.061Z,6.20
2018-12-07T02:46:03.239Z,4.93
2018-12-07T02:48:31.620Z,5.13
2018-12-07T02:50:59.900Z,6.67
2018-12-07T02:53:28.090Z,6.00
2018-12-07T02:55:56.422Z,5.60
2018-12-07T02:58:24.596Z,5.50
2018-12-07T03:00:52.785Z,6.30
2018-12-07T03:03:21.028Z,6.07
2018-12-07T03:05:49.173Z,6.17
2018-12-07T03:08:17.574Z,6.83
2018-12-07T03:10:45.955Z,6.63
2018-12-07T03:13:14.231Z,9.67
2018-12-07T03:15:42.389Z,7.33
2018-12-07T03:18:18.316Z,8.00
2018-12-07T03:20:47.225Z,7.60
2018-12-07T03:23:15.403Z,8.40
2018-12-07T03:25:43.701Z,8.80
2018-12-07T03:28:11.886Z,8.63
2018-12-07T03:30:40.086Z,9.50
2018-12-07T03:33:08.406Z,9.23
2018-12-07T03:35:36.586Z,9.23
2018-12-07T03:38:04.955Z,10.53
2018-12-07T03:40:33.537Z,11.60
2018-12-07T03:43:01.745Z,12.53
2018-12-07T03:45:30.127Z,10.63
2018-12-07T03:47:58.427Z,10.17
2018-12-07T03:50:26.602Z,10.10
2018-12-07T03:52:54.894Z,9.43
2018-12-07T03:55:23.202Z,10.77
2018-12-07T03:57:51.498Z,7.57
2018-12-07T04:00:19.755Z,9.23
2018-12-07T04:02:47.954Z,8.77
2018-12-07T04:05:16.234Z,9.90
2018-12-07T04:07:44.506Z,10.10
2018-12-07T04:10:12.740Z,7.90
2018-12-07T04:12:40.985Z,8.63
2018-12-07T04:15:09.201Z,10.93
2018-12-07T04:17:37.396Z,8.30
2018-12-07T04:20:06.022Z,8.28
2018-12-07T04:22:34.354Z,7.27
2018-12-07T04:25:02.569Z,7.93
2018-12-07T04:27:31.225Z,7.27
2018-12-07T04:30:11.511Z,8.17
2018-12-07T04:32:39.664Z,9.10
2018-12-07T04:35:08.001Z,10.60
2018-12-07T04:37:36.219Z,7.57
2018-12-07T04:40:05.047Z,7.57
2018-12-07T04:42:33.197Z,7.77
2018-12-07T04:45:01.429Z,8.37
2018-12-07T04:47:29.845Z,9.37
2018-12-07T04:49:58.158Z,6.43
2018-12-07T04:52:26.329Z,6.63
2018-12-07T04:54:54.524Z,6.90
2018-12-07T04:57:22.690Z,6.13
2018-12-07T04:59:50.892Z,5.93
2018-12-07T05:02:19.068Z,7.00
2018-12-07T05:04:47.309Z,6.80
2018-12-07T05:07:15.465Z,4.90
2018-12-07T05:09:43.626Z,5.17
2018-12-07T05:12:11.859Z,5.40
2018-12-07T05:14:40.095Z,7.10
2018-12-07T05:17:08.327Z,6.23
2018-12-07T05:19:36.625Z,5.43
2018-12-07T05:22:04.831Z,7.23
2018-12-07T05:24:34.653Z,5.20
2018-12-07T05:27:03.206Z,5.50
2018-12-07T05:29:31.674Z,5.57
2018-12-07T05:31:59.961Z,6.30
2018-12-07T05:34:28.145Z,7.13
2018-12-07T05:36:56.339Z,6.07
2018-12-07T05:39:24.581Z,6.37
2018-12-07T05:41:52.774Z,6.83
2018-12-07T05:44:20.967Z,6.30
2018-12-07T05:46:49.410Z,7.60
2018-12-07T05:49:17.549Z,9.20
2018-12-07T05:51:45.776Z,7.20
2018-12-07T05:54:14.237Z,8.33
2018-12-07T05:56:42.567Z,7.63
2018-12-07T05:59:10.720Z,8.83
2018-12-07T06:01:38.903Z,6.93
2018-12-07T06:04:07.242Z,6.97
2018-12-07T06:06:35.443Z,7.17
2018-12-07T06:09:05.600Z,8.97
2018-12-07T06:11:33.771Z,8.50
2018-12-07T06:14:02.080Z,8.40
2018-12-07T06:16:30.366Z,11.00
2018-12-07T06:18:58.562Z,12.83
2018-12-07T06:21:26.754Z,11.00
2018-12-07T06:23:54.925Z,10.27
2018-12-07T06:26:23.119Z,11.73
2018-12-07T06:28:51.615Z,10.50
2018-12-07T06:31:19.888Z,10.97
2018-12-07T06:33:48.051Z,11.63
2018-12-07T06:36:16.373Z,12.40
2018-12-07T06:38:46.409Z,12.87
2018-12-07T06:41:14.912Z,12.47
2018-12-07T06:43:43.261Z,13.13
2018-12-07T06:46:11.532Z,12.73
2018-12-07T06:48:39.779Z,13.57
2018-12-07T06:51:08.033Z,13.43
2018-12-07T06:53:36.213Z,12.97
2018-12-07T06:56:04.566Z,16.13
2018-12-07T06:58:32.739Z,18.47
2018-12-07T07:01:01.091Z,16.47
2018-12-07T07:03:29.453Z,18.27
2018-12-07T07:05:57.671Z,13.40
2018-12-07T07:08:25.830Z,15.67
2018-12-07T07:10:54.290Z,19.57
2018-12-07T07:13:22.476Z,17.50
2018-12-07T07:15:50.744Z,23.60
2018-12-07T07:18:18.946Z,20.70
2018-12-07T07:20:47.194Z,19.00
2018-12-07T07:23:15.367Z,20.53
2018-12-07T07:25:43.620Z,22.07
2018-12-07T07:28:11.793Z,21.93
2018-12-07T07:30:39.982Z,19.40
2018-12-07T07:33:08.128Z,19.93
2018-12-07T07:35:36.386Z,19.27
2018-12-07T07:38:04.652Z,20.23
2018-12-07T07:40:32.828Z,19.37
2018-12-07T07:43:01.196Z,17.77
2018-12-07T07:45:29.355Z,21.00
2018-12-07T07:47:57.556Z,17.10
2018-12-07T07:50:25.790Z,17.07
2018-12-07T07:52:54.178Z,14.70
2018-12-07T07:55:22.386Z,17.97
2018-12-07T07:57:50.571Z,12.83
2018-12-07T08:00:18.858Z,11.53
2018-12-07T08:02:47.086Z,13.07
2018-12-07T08:05:15.252Z,12.67
2018-12-07T08:07:43.464Z,11.07
2018-12-07T08:10:11.602Z,12.10
2018-12-07T08:12:39.826Z,11.67
2018-12-07T08:15:08.215Z,13.67
2018-12-07T08:17:36.374Z,12.27
2018-12-07T08:20:05.627Z,13.17
2018-12-07T08:22:33.850Z,10.37
2018-12-07T08:25:02.092Z,9.83
2018-12-07T08:27:30.468Z,11.90
2018-12-07T08:29:58.633Z,14.37
2018-12-07T08:32:26.789Z,11.67
2018-12-07T08:34:54.997Z,13.17
2018-12-07T08:37:23.205Z,15.10
2018-12-07T08:39:51.931Z,16.03
2018-12-07T08:42:20.109Z,14.57
2018-12-07T08:44:50.285Z,13.57
2018-12-07T08:47:18.675Z,11.93
2018-12-07T08:49:52.657Z,12.33
2018-12-07T08:52:20.842Z,11.60
2018-12-07T08:54:49.104Z,13.23
2018-12-07T08:57:17.418Z,13.50
2018-12-07T08:59:45.612Z,14.90
2018-12-07T09:02:13.812Z,11.67
2018-12-07T09:04:41.966Z,10.67
2018-12-07T09:07:10.103Z,9.57
2018-12-07T09:09:38.317Z,11.03
2018-12-07T09:12:06.523Z,10.93
2018-12-07T09:14:34.735Z,9.17
2018-12-07T09:17:02.928Z,9.10
2018-12-07T09:19:31.213Z,9.87
2018-12-07T09:21:59.389Z,7.27
2018-12-07T09:24:27.701Z,8.47
2018-12-07T09:26:55.970Z,9.43
2018-12-07T09:29:24.143Z,7.93
2018-12-07T09:31:52.522Z,7.20
2018-12-07T09:34:20.802Z,7.00
2018-12-07T09:36:49.079Z,7.97
2018-12-07T09:39:17.252Z,9.30
2018-12-07T09:41:45.538Z,10.77
2018-12-07T09:44:13.913Z,8.63
2018-12-07T09:46:42.142Z,11.67
2018-12-07T09:49:10.437Z,10.27
2018-12-07T09:51:38.599Z,9.20
2018-12-07T09:54:06.825Z,12.30
2018-12-07T09:56:35.081Z,10.37
2018-12-07T09:59:03.359Z,9.03
2018-12-07T10:01:31.526Z,10.83
2018-12-07T10:03:59.690Z,12.47
2018-12-07T10:06:27.928Z,11.80
2018-12-07T10:08:58.113Z,11.03
2018-12-07T10:11:26.585Z,11.90
2018-12-07T10:13:54.743Z,9.63
2018-12-07T10:16:22.918Z,12.73
2018-12-07T10:18:51.223Z,13.17
2018-12-07T10:21:19.440Z,11.93
2018-12-07T10:23:47.755Z,9.77
2018-12-07T10:26:15.926Z,10.23
2018-12-07T10:28:44.101Z,11.77
2018-12-07T10:31:12.320Z,10.13
2018-12-07T10:33:40.465Z,9.97
2018-12-07T10:36:08.589Z,10.60
2018-12-07T10:38:36.827Z,9.53
2018-12-07T10:41:05.105Z,9.97
2018-12-07T10:43:33.335Z,9.83
2018-12-07T10:46:01.664Z,10.37
2018-12-07T10:48:29.822Z,8.17
2018-12-07T10:50:58.067Z,9.43
2018-12-07T10:53:26.226Z,6.80
2018-12-07T10:55:54.576Z,8.10
2018-12-07T10:58:23.062Z,7.00
2018-12-07T11:00:56.940Z,7.10
2018-12-07T11:03:30.924Z,7.03
2018-12-07T11:06:04.915Z,6.67
2018-12-07T11:08:38.866Z,8.80
2018-12-07T11:11:13.507Z,8.83
2018-12-07T11:13:47.808Z,5.10
2018-12-07T11:22:33.563Z,7.27
2018-12-07T11:25:07.462Z,9.90
2018-12-07T11:27:41.474Z,7.23
2018-12-07T11:30:15.541Z,7.97
2018-12-07T11:32:49.582Z,6.90
2018-12-07T11:35:19.818Z,7.07
2018-12-07T11:37:48.086Z,7.03
2018-12-07T11:40:16.215Z,7.87
2018-12-07T11:42:44.424Z,7.27
2018-12-07T11:45:12.595Z,7.20
2018-12-07T11:47:40.785Z,7.87
2018-12-07T11:50:09.870Z,8.30
2018-12-07T11:52:38.156Z,8.67
2018-12-07T11:55:06.700Z,7.47
2018-12-07T11:57:34.914Z,7.83
2018-12-07T12:00:04.536Z,7.60
2018-12-07T12:02:32.902Z,6.63
2018-12-07T12:05:01.179Z,5.70
2018-12-07T12:07:29.362Z,5.83
2018-12-07T12:09:57.551Z,5.57
2018-12-07T12:12:25.765Z,6.47
2018-12-07T12:14:54.076Z,4.70
2018-12-07T12:17:22.367Z,6.47
2018-12-07T12:19:50.524Z,4.53
2018-12-07T12:22:18.696Z,5.23
2018-12-07T12:24:46.852Z,4.33
2018-12-07T12:27:15.251Z,5.47
2018-12-07T12:29:43.545Z,4.77
2018-12-07T12:32:11.685Z,3.93
2018-12-07T12:34:40.093Z,3.77
2018-12-07T12:37:08.311Z,4.90
2018-12-07T12:39:36.507Z,3.70
2018-12-07T12:42:04.826Z,3.60
2018-12-07T12:44:33.087Z,5.10
2018-12-07T12:47:01.261Z,4.33
2018-12-07T12:49:29.448Z,4.83
2018-12-07T12:51:57.678Z,3.40
2018-12-07T12:54:25.899Z,5.00
2018-12-07T12:56:54.027Z,4.60
2018-12-07T12:59:22.300Z,3.70
2018-12-07T13:01:52.392Z,4.53
2018-12-07T13:04:20.947Z,3.90
2018-12-07T13:06:49.123Z,4.33
2018-12-07T13:09:17.334Z,4.63
2018-12-07T13:11:45.554Z,5.50
2018-12-07T13:14:14.247Z,4.27
2018-12-07T13:16:42.513Z,3.77
2018-12-07T13:19:10.718Z,7.20
2018-12-07T13:21:38.882Z,4.10
2018-12-07T13:24:07.140Z,4.73
2018-12-07T13:26:35.351Z,4.20
2018-12-07T13:29:03.740Z,5.33
2018-12-07T13:31:31.888Z,4.53
2018-12-07T13:34:00.152Z,5.03
2018-12-07T13:36:28.332Z,4.77
2018-12-07T13:38:56.579Z,4.90
2018-12-07T13:41:24.803Z,5.50
2018-12-07T13:43:53.250Z,4.63
2018-12-07T13:46:21.636Z,4.10
2018-12-07T13:48:50.231Z,4.07
2018-12-07T13:51:18.604Z,3.80
2018-12-07T13:53:46.938Z,4.73
2018-12-07T13:56:16.308Z,3.77
2018-12-07T13:58:44.953Z,6.57
2018-12-07T14:01:13.209Z,4.40
2018-12-07T14:03:41.788Z,3.70
2018-12-07T14:06:10.225Z,3.57
2018-12-07T14:08:38.744Z,4.60
2018-12-07T14:11:07.016Z,4.27
2018-12-07T14:13:35.369Z,5.57
2018-12-07T14:16:03.668Z,5.10
2018-12-07T14:18:32.042Z,4.80
2018-12-07T14:21:00.653Z,4.43
2018-12-07T14:23:29.034Z,5.43
2018-12-07T14:25:58.382Z,7.60
2018-12-07T14:28:27.006Z,7.10
2018-12-07T14:30:55.502Z,5.90
2018-12-07T14:33:23.855Z,6.27
2018-12-07T14:35:52.762Z,5.57
2018-12-07T14:38:21.253Z,7.03
2018-12-07T14:40:49.678Z,5.30
2018-12-07T14:43:17.984Z,6.37
2018-12-07T14:45:46.292Z,6.37
2018-12-07T14:48:14.618Z,6.13
2018-12-07T14:50:43.314Z,6.00
2018-12-07T14:53:11.693Z,6.30
2018-12-07T14:55:40.521Z,6.97
2018-12-07T14:58:08.981Z,7.07
2018-12-07T15:00:37.227Z,6.93
2018-12-07T15:03:05.761Z,7.00
2018-12-07T15:05:34.148Z,7.20
2018-12-07T15:08:02.886Z,7.33
2018-12-07T15:10:31.346Z,6.67
2018-12-07T15:12:59.644Z,6.70
2018-12-07T15:15:27.879Z,9.97
2018-12-07T15:17:56.618Z,8.60
2018-12-07T15:20:25.015Z,7.83
2018-12-07T15:22:53.374Z,11.13
2018-12-07T15:25:21.849Z,7.63
2018-12-07T15:27:50.352Z,8.87
2018-12-07T15:30:19.268Z,9.43
2018-12-07T15:32:47.980Z,7.30
2018-12-07T15:35:16.380Z,10.20
2018-12-07T15:37:44.985Z,9.70
2018-12-07T15:40:13.722Z,9.87
2018-12-07T15:42:42.195Z,6.77
2018-12-07T15:45:10.558Z,8.20
2018-12-07T15:47:39.324Z,8.10
2018-12-07T15:50:07.994Z,8.90
2018-12-07T15:52:36.317Z,8.53
2018-12-07T15:55:05.801Z,9.67
2018-12-07T15:57:34.122Z,10.27
2018-12-07T16:00:02.669Z,12.50
2018-12-07T16:02:31.149Z,11.43
2018-12-07T16:04:59.450Z,13.43
2018-12-07T16:07:27.773Z,12.60
2018-12-07T16:09:56.141Z,12.77
2018-12-07T16:12:24.512Z,13.57
2018-12-07T16:14:52.897Z,16.10
2018-12-07T16:17:21.205Z,13.53
2018-12-07T16:19:49.755Z,15.57
2018-12-07T16:22:18.392Z,13.73
2018-12-07T16:24:46.878Z,17.33
2018-12-07T16:27:15.325Z,16.07
2018-12-07T16:29:43.904Z,15.23
2018-12-07T16:32:12.559Z,15.97
2018-12-07T16:34:40.957Z,14.07
2018-12-07T16:37:09.344Z,16.23
2018-12-07T16:39:37.743Z,15.77
2018-12-07T16:42:06.243Z,16.20
2018-12-07T16:44:34.770Z,19.67
2018-12-07T16:47:03.046Z,19.57
2018-12-07T16:49:31.316Z,16.30
2018-12-07T16:51:59.498Z,14.87
2018-12-07T16:54:27.912Z,15.97
2018-12-07T16:56:56.274Z,14.30
2018-12-07T16:59:24.571Z,14.90
2018-12-07T17:01:53.133Z,13.30
2018-12-07T17:04:21.527Z,13.63
2018-12-07T17:06:49.719Z,13.23
2018-12-07T17:09:18.045Z,12.00
2018-12-07T17:11:46.686Z,14.00
2018-12-07T17:14:15.074Z,14.53
2018-12-07T17:16:45.156Z,11.80
2018-12-07T17:19:13.814Z,14.53
2018-12-07T17:21:42.458Z,13.63
2018-12-07T17:24:10.843Z,16.37
2018-12-07T17:26:39.099Z,14.93
2018-12-07T17:29:07.443Z,18.00
2018-12-07T17:31:36.071Z,16.10
2018-12-07T17:34:04.841Z,16.00
2018-12-07T17:36:33.388Z,15.50
2018-12-07T17:39:01.858Z,16.53
2018-12-07T17:41:30.253Z,14.27
2018-12-07T17:43:58.472Z,14.10
2018-12-07T17:46:26.965Z,14.13
2018-12-07T17:48:55.625Z,15.33
2018-12-07T17:51:24.016Z,16.37
2018-12-07T17:53:52.440Z,14.27
2018-12-07T17:56:20.738Z,15.17
2018-12-07T17:58:48.969Z,14.17
2018-12-07T18:01:17.179Z,15.50
2018-12-07T18:03:46.672Z,13.43
2018-12-07T18:06:15.759Z,15.90
2018-12-07T18:08:44.283Z,14.43
2018-12-07T18:11:12.751Z,11.97
2018-12-07T18:13:40.969Z,14.33
2018-12-07T18:16:09.148Z,13.13
2018-12-07T18:18:37.395Z,13.97
2018-12-07T18:21:05.598Z,14.33
2018-12-07T18:23:33.868Z,15.43
2018-12-07T18:26:02.400Z,15.77
2018-12-07T18:28:31.524Z,15.83
2018-12-07T18:31:00.084Z,20.10
2018-12-07T18:33:28.387Z,16.67
2018-12-07T18:35:56.713Z,19.13
2018-12-07T18:38:25.089Z,22.63
2018-12-07T18:40:53.714Z,17.97
2018-12-07T18:43:21.990Z,20.10
2018-12-07T18:45:50.508Z,20.73
2018-12-07T18:48:18.874Z,22.00
2018-12-07T18:50:47.227Z,18.50
2018-12-07T18:53:15.733Z,17.77
2018-12-07T18:55:43.997Z,25.37
2018-12-07T18:58:12.277Z,18.40
2018-12-07T19:00:40.764Z,18.80
2018-12-07T19:03:09.195Z,18.77
2018-12-07T19:05:38.077Z,21.40
2018-12-07T19:08:06.823Z,18.27
2018-12-07T19:10:35.478Z,17.87
2018-12-07T19:13:04.216Z,18.37
2018-12-07T19:15:32.889Z,17.53
2018-12-07T19:18:01.520Z,20.93
2018-12-07T19:20:29.933Z,21.13
2018-12-07T19:22:58.465Z,20.23
2018-12-07T19:25:26.831Z,20.13
2018-12-07T19:27:55.340Z,18.77
2018-12-07T19:30:23.889Z,20.17
2018-12-07T19:32:52.458Z,17.97
2018-12-07T19:35:20.913Z,20.63
2018-12-07T19:37:49.723Z,19.73
2018-12-07T19:40:18.278Z,18.97
2018-12-07T19:42:48.505Z,17.80
2018-12-07T19:45:17.026Z,16.93
2018-12-07T19:47:45.453Z,17.87
2018-12-07T19:50:15.588Z,18.47
2018-12-07T19:52:44.473Z,18.67
2018-12-07T19:55:13.018Z,17.03
2018-12-07T19:57:41.410Z,17.83
2018-12-07T20:00:10.121Z,18.77
2018-12-07T20:02:38.375Z,17.53
2018-12-07T20:05:07.221Z,18.67
2018-12-07T20:07:35.807Z,19.90
2018-12-07T20:10:05.530Z,17.13
2018-12-07T20:12:33.887Z,16.47
2018-12-07T20:15:02.299Z,15.70
2018-12-07T20:17:30.710Z,16.67
2018-12-07T20:19:59.093Z,13.90
2018-12-07T20:22:27.380Z,16.53
2018-12-07T20:24:55.797Z,13.93
2018-12-07T20:27:24.382Z,14.03
2018-12-07T20:29:52.842Z,16.63
2018-12-07T20:32:21.378Z,15.33
2018-12-07T20:34:49.818Z,13.23
2018-12-07T20:37:18.232Z,13.40
2018-12-07T20:39:46.745Z,7.27
2018-12-07T20:42:15.203Z,7.50
2018-12-07T20:44:44.050Z,7.17
2018-12-07T20:47:12.406Z,5.80
2018-12-07T20:49:40.795Z,6.70
2018-12-07T20:52:09.115Z,10.37
2018-12-07T20:54:37.459Z,10.23
2018-12-07T20:57:05.642Z,8.43
2018-12-07T20:59:34.185Z,8.23
2018-12-07T21:02:02.642Z,11.80
2018-12-07T21:04:32.933Z,8.80
2018-12-07T21:17:14.241Z,9.60
2018-12-07T21:19:46.774Z,8.50
2018-12-07T21:22:15.294Z,11.73
2018-12-07T21:24:43.874Z,8.83
2018-12-07T21:27:12.262Z,10.93
2018-12-07T21:29:41.188Z,8.73
2018-12-07T21:32:12.371Z,7.93
2018-12-07T21:34:55.321Z,15.93
2018-12-07T21:37:23.960Z,9.33
2018-12-07T21:39:53.490Z,14.57
2018-12-07T21:42:21.903Z,15.27
2018-12-07T21:44:50.430Z,10.27
2018-12-07T21:47:22.572Z,17.60
2018-12-07T21:49:50.932Z,10.97
2018-12-07T21:52:19.149Z,10.37
2018-12-07T21:54:47.665Z,12.03
2018-12-07T21:57:16.553Z,11.57
2018-12-07T21:59:46.430Z,16.00
2018-12-07T22:02:15.015Z,19.80
2018-12-07T22:04:43.242Z,16.10
2018-12-07T22:07:11.625Z,18.87
2018-12-07T22:09:39.861Z,19.73
2018-12-07T22:12:08.404Z,17.37
2018-12-07T22:14:36.690Z,20.80
2018-12-07T22:17:04.948Z,11.97
2018-12-07T22:19:33.357Z,14.03
2018-12-07T22:22:01.750Z,17.97
2018-12-07T22:24:30.077Z,14.93
2018-12-07T22:26:58.353Z,16.17
2018-12-07T22:29:26.653Z,12.60
2018-12-07T22:31:55.442Z,19.50
2018-12-07T22:34:23.816Z,15.97
2018-12-07T22:36:52.389Z,19.87
2018-12-07T22:39:20.882Z,14.93
2018-12-07T22:41:51.144Z,10.63
2018-12-07T22:44:19.830Z,16.10
2018-12-07T22:46:48.163Z,11.80
2018-12-07T22:49:16.405Z,12.33
2018-12-07T22:51:44.741Z,9.97
2018-12-07T22:54:13.113Z,10.00
2018-12-07T22:56:42.243Z,8.23
2018-12-07T22:59:10.434Z,11.17
2018-12-07T23:01:38.862Z,14.60
2018-12-07T23:04:07.261Z,7.23
2018-12-07T23:06:35.531Z,16.40
2018-12-07T23:09:05.964Z,11.83
2018-12-07T23:11:34.465Z,10.13
2018-12-07T23:14:02.868Z,12.73
2018-12-07T23:16:31.317Z,15.03
2018-12-07T23:18:59.487Z,16.67
2018-12-07T23:21:27.938Z,11.90
2018-12-07T23:23:56.132Z,19.77
2018-12-07T23:26:24.358Z,13.13
2018-12-07T23:28:52.594Z,11.03
2018-12-07T23:31:20.953Z,9.93
2018-12-07T23:33:49.149Z,15.50
2018-12-07T23:36:17.332Z,10.57
2018-12-07T23:38:45.528Z,19.83
2018-12-07T23:41:13.748Z,20.53
2018-12-07T23:43:41.981Z,18.73
2018-12-07T23:46:11.244Z,17.43
2018-12-07T23:48:39.598Z,18.33
2018-12-07T23:51:07.887Z,17.73
2018-12-07T23:53:36.167Z,19.10
2018-12-07T23:56:04.426Z,20.40
2018-12-07T23:58:32.611Z,26.00
